sensor_id;sensor_type;location;lat;lon;timestamp;pressure;altitude;pressure_sealevel;temperature;humidity
21980;BME280;11154;48.558;9.234;2024-02-26T00:01:42;95631.16;;;13.67;44.55
21980;BME280;11154;48.558;9.234;2024-02-26T00:03:44;95600.34;;;13.64;44.34
21980;BME280;11154;48.558;9.234;2024-02-26T00:05:48;95615.56;;;13.64;45.20
21980;BME280;11154;48.558;9.234;2024-02-26T00:07:50;95618.84;;;13.66;47.01
21980;BME280;11154;48.558;9.234;2024-02-26T00:09:51;95601.19;;;13.65;44.51
21980;BME280;11154;48.558;9.234;2024-02-26T00:11:52;95616.59;;;13.63;44.08
21980;BME280;11154;48.558;9.234;2024-02-26T00:13:54;95620.09;;;13.63;44.49
21980;BME280;11154;48.558;9.234;2024-02-26T00:15:55;95616.97;;;13.66;44.55
21980;BME280;11154;48.558;9.234;2024-02-26T00:17:56;95611.75;;;13.71;44.04
21980;BME280;11154;48.558;9.234;2024-02-26T00:19:58;95618.06;;;13.76;43.23
21980;BME280;11154;48.558;9.234;2024-02-26T00:22:02;95606.91;;;13.79;42.71
21980;BME280;11154;48.558;9.234;2024-02-26T00:24:04;95614.25;;;13.84;43.35
21980;BME280;11154;48.558;9.234;2024-02-26T00:26:06;95611.13;;;13.87;42.10
21980;BME280;11154;48.558;9.234;2024-02-26T00:28:06;95609.38;;;13.92;41.88
21980;BME280;11154;48.558;9.234;2024-02-26T00:30:09;95602.31;;;13.98;41.19
21980;BME280;11154;48.558;9.234;2024-02-26T00:32:10;95595.56;;;13.95;41.60
21980;BME280;11154;48.558;9.234;2024-02-26T00:34:12;95598.25;;;13.95;42.36
21980;BME280;11154;48.558;9.234;2024-02-26T00:36:13;95605.22;;;13.96;42.72
21980;BME280;11154;48.558;9.234;2024-02-26T00:38:16;95597.88;;;13.92;42.34
21980;BME280;11154;48.558;9.234;2024-02-26T00:40:17;95596.72;;;13.88;41.33
21980;BME280;11154;48.558;9.234;2024-02-26T00:42:19;95597.53;;;13.88;41.65
21980;BME280;11154;48.558;9.234;2024-02-26T00:44:20;95600.81;;;13.90;41.69
21980;BME280;11154;48.558;9.234;2024-02-26T00:46:22;95600.31;;;13.93;42.55
21980;BME280;11154;48.558;9.234;2024-02-26T00:48:24;95597.44;;;13.95;41.82
21980;BME280;11154;48.558;9.234;2024-02-26T00:50:26;95591.28;;;13.94;42.30
21980;BME280;11154;48.558;9.234;2024-02-26T00:52:27;95583.56;;;13.86;41.18
21980;BME280;11154;48.558;9.234;2024-02-26T00:54:29;95598.00;;;13.85;42.04
21980;BME280;11154;48.558;9.234;2024-02-26T00:56:31;95585.69;;;13.84;43.08
21980;BME280;11154;48.558;9.234;2024-02-26T00:58:32;95603.19;;;13.80;42.63
21980;BME280;11154;48.558;9.234;2024-02-26T01:00:33;95595.19;;;13.80;43.54
21980;BME280;11154;48.558;9.234;2024-02-26T01:02:35;95595.19;;;13.80;43.28
21980;BME280;11154;48.558;9.234;2024-02-26T01:04:35;95594.38;;;13.80;41.77
21980;BME280;11154;48.558;9.234;2024-02-26T01:06:37;95603.00;;;13.82;40.77
21980;BME280;11154;48.558;9.234;2024-02-26T01:08:38;95593.69;;;13.84;43.74
21980;BME280;11154;48.558;9.234;2024-02-26T01:10:42;95584.84;;;13.84;45.65
21980;BME280;11154;48.558;9.234;2024-02-26T01:12:43;95582.84;;;13.79;44.90
21980;BME280;11154;48.558;9.234;2024-02-26T01:14:45;95608.41;;;13.75;45.77
21980;BME280;11154;48.558;9.234;2024-02-26T01:16:46;95613.38;;;13.72;46.56
21980;BME280;11154;48.558;9.234;2024-02-26T01:18:48;95608.72;;;13.68;47.01
21980;BME280;11154;48.558;9.234;2024-02-26T01:20:50;95605.25;;;13.67;46.74
21980;BME280;11154;48.558;9.234;2024-02-26T01:22:53;95608.16;;;13.66;45.03
21980;BME280;11154;48.558;9.234;2024-02-26T01:24:55;95610.47;;;13.62;45.52
21980;BME280;11154;48.558;9.234;2024-02-26T01:26:58;95608.00;;;13.61;45.21
21980;BME280;11154;48.558;9.234;2024-02-26T01:29:00;95605.31;;;13.61;46.16
21980;BME280;11154;48.558;9.234;2024-02-26T01:31:01;95617.63;;;13.62;46.69
21980;BME280;11154;48.558;9.234;2024-02-26T01:33:05;95608.09;;;13.54;45.37
21980;BME280;11154;48.558;9.234;2024-02-26T01:35:07;95609.59;;;13.50;45.19
21980;BME280;11154;48.558;9.234;2024-02-26T01:37:11;95609.25;;;13.47;45.43
21980;BME280;11154;48.558;9.234;2024-02-26T01:39:12;95602.50;;;13.44;45.12
21980;BME280;11154;48.558;9.234;2024-02-26T01:41:13;95612.34;;;13.44;45.18
21980;BME280;11154;48.558;9.234;2024-02-26T01:43:15;95613.00;;;13.39;45.06
21980;BME280;11154;48.558;9.234;2024-02-26T01:45:17;95628.22;;;13.39;44.92
21980;BME280;11154;48.558;9.234;2024-02-26T01:47:22;95628.66;;;13.36;45.03
21980;BME280;11154;48.558;9.234;2024-02-26T01:49:24;95635.06;;;13.35;45.76
21980;BME280;11154;48.558;9.234;2024-02-26T01:51:25;95631.56;;;13.34;45.31
21980;BME280;11154;48.558;9.234;2024-02-26T01:53:27;95629.13;;;13.33;44.44
21980;BME280;11154;48.558;9.234;2024-02-26T01:55:29;95625.44;;;13.34;43.28
21980;BME280;11154;48.558;9.234;2024-02-26T01:57:31;95624.72;;;13.38;41.32
21980;BME280;11154;48.558;9.234;2024-02-26T01:59:34;95620.59;;;13.42;41.10
21980;BME280;11154;48.558;9.234;2024-02-26T02:01:36;95606.75;;;11.89;46.24
21980;BME280;11154;48.558;9.234;2024-02-26T02:03:40;95612.84;;;11.22;48.78
21980;BME280;11154;48.558;9.234;2024-02-26T02:05:42;95606.81;;;10.95;49.47
21980;BME280;11154;48.558;9.234;2024-02-26T02:07:44;95608.94;;;10.80;50.38
21980;BME280;11154;48.558;9.234;2024-02-26T02:09:45;95601.56;;;10.70;53.87
21980;BME280;11154;48.558;9.234;2024-02-26T02:11:46;95583.84;;;10.57;55.00
21980;BME280;11154;48.558;9.234;2024-02-26T02:13:48;95588.13;;;10.52;54.64
21980;BME280;11154;48.558;9.234;2024-02-26T02:15:51;95593.28;;;10.47;54.81
21980;BME280;11154;48.558;9.234;2024-02-26T02:17:53;95611.25;;;10.32;57.80
21980;BME280;11154;48.558;9.234;2024-02-26T02:19:55;95621.47;;;10.28;59.40
21980;BME280;11154;48.558;9.234;2024-02-26T02:21:57;95628.63;;;10.21;61.41
21980;BME280;11154;48.558;9.234;2024-02-26T02:23:58;95624.56;;;10.19;59.44
21980;BME280;11154;48.558;9.234;2024-02-26T02:26:00;95634.38;;;10.18;59.68
21980;BME280;11154;48.558;9.234;2024-02-26T02:28:02;95635.19;;;10.19;60.91
21980;BME280;11154;48.558;9.234;2024-02-26T02:30:04;95638.25;;;10.16;62.30
21980;BME280;11154;48.558;9.234;2024-02-26T02:32:06;95636.41;;;10.10;62.15
21980;BME280;11154;48.558;9.234;2024-02-26T02:34:09;95631.28;;;10.08;61.89
21980;BME280;11154;48.558;9.234;2024-02-26T02:36:11;95619.88;;;10.08;61.02
21980;BME280;11154;48.558;9.234;2024-02-26T02:38:14;95610.69;;;10.17;58.45
21980;BME280;11154;48.558;9.234;2024-02-26T02:40:15;95600.84;;;10.24;57.56
21980;BME280;11154;48.558;9.234;2024-02-26T02:42:17;95603.72;;;10.29;60.05
21980;BME280;11154;48.558;9.234;2024-02-26T02:44:18;95604.56;;;10.23;59.70
21980;BME280;11154;48.558;9.234;2024-02-26T02:46:19;95601.47;;;10.26;58.21
21980;BME280;11154;48.558;9.234;2024-02-26T02:48:21;95604.56;;;10.23;59.96
21980;BME280;11154;48.558;9.234;2024-02-26T02:50:22;95595.53;;;10.24;59.25
21980;BME280;11154;48.558;9.234;2024-02-26T02:52:24;95595.13;;;10.20;60.20
21980;BME280;11154;48.558;9.234;2024-02-26T02:54:27;95608.00;;;10.23;60.96
21980;BME280;11154;48.558;9.234;2024-02-26T02:56:29;95610.25;;;10.20;60.81
21980;BME280;11154;48.558;9.234;2024-02-26T02:58:30;95620.25;;;10.18;61.66
21980;BME280;11154;48.558;9.234;2024-02-26T03:00:32;95614.56;;;10.08;62.39
21980;BME280;11154;48.558;9.234;2024-02-26T03:02:34;95603.50;;;9.98;63.47
21980;BME280;11154;48.558;9.234;2024-02-26T03:04:36;95610.28;;;10.01;62.95
21980;BME280;11154;48.558;9.234;2024-02-26T03:06:37;95599.44;;;10.02;62.77
21980;BME280;11154;48.558;9.234;2024-02-26T03:08:39;95590.25;;;10.05;63.87
21980;BME280;11154;48.558;9.234;2024-02-26T03:10:43;95604.75;;;10.02;63.26
21980;BME280;11154;48.558;9.234;2024-02-26T03:12:45;95607.81;;;9.99;66.70
21980;BME280;11154;48.558;9.234;2024-02-26T03:14:47;95604.13;;;9.94;64.73
21980;BME280;11154;48.558;9.234;2024-02-26T03:16:48;95599.00;;;9.92;65.01
21980;BME280;11154;48.558;9.234;2024-02-26T03:18:49;95586.16;;;9.89;67.02
21980;BME280;11154;48.558;9.234;2024-02-26T03:20:50;95587.97;;;9.89;64.71
21980;BME280;11154;48.558;9.234;2024-02-26T03:22:52;95584.50;;;9.88;66.77
21980;BME280;11154;48.558;9.234;2024-02-26T03:24:54;95590.25;;;9.85;68.75
21980;BME280;11154;48.558;9.234;2024-02-26T03:26:57;95586.13;;;9.83;67.39
21980;BME280;11154;48.558;9.234;2024-02-26T03:28:58;95582.66;;;9.76;67.20
21980;BME280;11154;48.558;9.234;2024-02-26T03:30:59;95574.09;;;9.74;65.91
21980;BME280;11154;48.558;9.234;2024-02-26T03:33:01;95564.28;;;9.74;65.23
21980;BME280;11154;48.558;9.234;2024-02-26T03:35:03;95564.91;;;9.76;68.02
21980;BME280;11154;48.558;9.234;2024-02-26T03:37:04;95577.56;;;9.74;68.41
21980;BME280;11154;48.558;9.234;2024-02-26T03:39:06;95586.94;;;9.77;68.00
21980;BME280;11154;48.558;9.234;2024-02-26T03:41:09;95590.63;;;9.76;68.86
21980;BME280;11154;48.558;9.234;2024-02-26T03:43:12;95587.16;;;9.69;73.88
21980;BME280;11154;48.558;9.234;2024-02-26T03:45:13;95591.81;;;9.60;71.69
21980;BME280;11154;48.558;9.234;2024-02-26T03:47:16;95592.25;;;9.64;68.51
21980;BME280;11154;48.558;9.234;2024-02-26T03:49:17;95601.84;;;9.71;68.87
21980;BME280;11154;48.558;9.234;2024-02-26T03:51:19;95589.59;;;9.70;66.21
21980;BME280;11154;48.558;9.234;2024-02-26T03:53:21;95570.19;;;9.70;66.88
21980;BME280;11154;48.558;9.234;2024-02-26T03:55:22;95579.19;;;9.75;67.69
21980;BME280;11154;48.558;9.234;2024-02-26T03:57:25;95578.38;;;9.81;64.97
21980;BME280;11154;48.558;9.234;2024-02-26T03:59:28;95574.91;;;9.87;63.89
21980;BME280;11154;48.558;9.234;2024-02-26T04:01:28;95570.00;;;9.91;62.67
21980;BME280;11154;48.558;9.234;2024-02-26T04:03:30;95616.59;;;10.19;63.41
21980;BME280;11154;48.558;9.234;2024-02-26T04:05:32;95613.53;;;11.04;59.82
21980;BME280;11154;48.558;9.234;2024-02-26T04:07:33;95611.09;;;11.47;60.97
21980;BME280;11154;48.558;9.234;2024-02-26T04:09:35;95609.72;;;11.75;60.92
21980;BME280;11154;48.558;9.234;2024-02-26T04:11:35;95623.88;;;12.00;60.56
21980;BME280;11154;48.558;9.234;2024-02-26T04:13:37;95608.56;;;12.20;59.72
21980;BME280;11154;48.558;9.234;2024-02-26T04:15:40;95623.97;;;12.35;56.06
21980;BME280;11154;48.558;9.234;2024-02-26T04:17:42;95625.72;;;12.48;55.10
21980;BME280;11154;48.558;9.234;2024-02-26T04:19:43;95629.06;;;12.61;53.93
21980;BME280;11154;48.558;9.234;2024-02-26T04:21:45;95640.63;;;12.73;55.34
21980;BME280;11154;48.558;9.234;2024-02-26T04:23:47;95646.72;;;12.80;57.06
21980;BME280;11154;48.558;9.234;2024-02-26T04:25:50;95640.31;;;12.88;57.26
21980;BME280;11154;48.558;9.234;2024-02-26T04:27:53;95632.47;;;12.93;57.37
21980;BME280;11154;48.558;9.234;2024-02-26T04:29:55;95631.00;;;12.97;55.08
21980;BME280;11154;48.558;9.234;2024-02-26T04:31:58;95634.47;;;12.97;54.82
21980;BME280;11154;48.558;9.234;2024-02-26T04:33:59;95634.47;;;12.97;53.94
21980;BME280;11154;48.558;9.234;2024-02-26T04:36:00;95634.84;;;13.00;53.89
21980;BME280;11154;48.558;9.234;2024-02-26T04:38:01;95634.16;;;13.05;53.26
21980;BME280;11154;48.558;9.234;2024-02-26T04:40:04;95642.13;;;13.11;53.94
21980;BME280;11154;48.558;9.234;2024-02-26T04:42:06;95644.56;;;13.13;56.84
21980;BME280;11154;48.558;9.234;2024-02-26T04:44:07;95634.31;;;13.10;57.30
21980;BME280;11154;48.558;9.234;2024-02-26T04:46:08;95634.13;;;13.11;55.94
21980;BME280;11154;48.558;9.234;2024-02-26T04:48:11;95626.53;;;13.08;55.48
21980;BME280;11154;48.558;9.234;2024-02-26T04:50:13;95620.59;;;13.06;55.17
21980;BME280;11154;48.558;9.234;2024-02-26T04:52:15;95613.44;;;13.07;55.68
21980;BME280;11154;48.558;9.234;2024-02-26T04:54:16;95608.09;;;13.07;56.62
21980;BME280;11154;48.558;9.234;2024-02-26T04:56:18;95600.53;;;13.04;56.50
21980;BME280;11154;48.558;9.234;2024-02-26T04:58:19;95595.50;;;12.96;56.00
21980;BME280;11154;48.558;9.234;2024-02-26T05:00:20;95594.34;;;12.86;55.33
21980;BME280;11154;48.558;9.234;2024-02-26T05:02:22;95602.41;;;12.79;55.66
21980;BME280;11154;48.558;9.234;2024-02-26T05:04:26;95597.31;;;12.78;55.33
21980;BME280;11154;48.558;9.234;2024-02-26T05:06:26;95590.34;;;12.77;55.18
21980;BME280;11154;48.558;9.234;2024-02-26T05:08:28;95599.84;;;12.73;55.23
21980;BME280;11154;48.558;9.234;2024-02-26T05:10:29;95606.56;;;12.75;55.51
21980;BME280;11154;48.558;9.234;2024-02-26T05:12:31;95615.75;;;12.79;55.09
21980;BME280;11154;48.558;9.234;2024-02-26T05:14:35;95619.03;;;12.81;54.20
21980;BME280;11154;48.558;9.234;2024-02-26T05:16:37;95612.66;;;12.82;55.02
21980;BME280;11154;48.558;9.234;2024-02-26T05:18:38;95621.84;;;12.86;54.67
21980;BME280;11154;48.558;9.234;2024-02-26T05:20:41;95621.22;;;12.91;54.34
21980;BME280;11154;48.558;9.234;2024-02-26T05:22:42;95636.97;;;12.92;53.27
21980;BME280;11154;48.558;9.234;2024-02-26T05:24:44;95648.09;;;12.89;52.27
21980;BME280;11154;48.558;9.234;2024-02-26T05:26:45;95657.34;;;12.87;55.39
21980;BME280;11154;48.558;9.234;2024-02-26T05:28:47;95653.47;;;12.83;56.25
21980;BME280;11154;48.558;9.234;2024-02-26T05:30:49;95654.50;;;12.82;56.53
21980;BME280;11154;48.558;9.234;2024-02-26T05:32:50;95653.84;;;12.86;56.26
21980;BME280;11154;48.558;9.234;2024-02-26T05:34:52;95650.97;;;12.88;56.53
21980;BME280;11154;48.558;9.234;2024-02-26T05:36:55;95638.84;;;12.92;56.68
21980;BME280;11154;48.558;9.234;2024-02-26T05:38:57;95633.88;;;12.95;56.88
21980;BME280;11154;48.558;9.234;2024-02-26T05:40:58;95634.91;;;12.94;56.99
21980;BME280;11154;48.558;9.234;2024-02-26T05:42:59;95641.44;;;12.98;56.82
21980;BME280;11154;48.558;9.234;2024-02-26T05:45:01;95637.50;;;13.00;56.86
21980;BME280;11154;48.558;9.234;2024-02-26T05:47:06;95654.94;;;13.03;56.39
21980;BME280;11154;48.558;9.234;2024-02-26T05:49:08;95648.53;;;13.04;56.33
21980;BME280;11154;48.558;9.234;2024-02-26T05:51:09;95651.81;;;13.06;55.29
21980;BME280;11154;48.558;9.234;2024-02-26T05:53:12;95648.25;;;13.12;61.63
21980;BME280;11154;48.558;9.234;2024-02-26T05:55:14;95650.50;;;13.15;60.62
21980;BME280;11154;48.558;9.234;2024-02-26T05:57:15;95654.63;;;13.11;56.87
21980;BME280;11154;48.558;9.234;2024-02-26T05:59:18;95655.75;;;13.03;55.08
21980;BME280;11154;48.558;9.234;2024-02-26T06:01:20;95660.28;;;13.03;54.52
21980;BME280;11154;48.558;9.234;2024-02-26T06:03:22;95664.78;;;13.02;53.87
21980;BME280;11154;48.558;9.234;2024-02-26T06:05:23;95662.34;;;13.01;53.70
21980;BME280;11154;48.558;9.234;2024-02-26T06:07:25;95662.34;;;13.01;52.89
21980;BME280;11154;48.558;9.234;2024-02-26T06:09:28;95661.50;;;13.00;53.27
21980;BME280;11154;48.558;9.234;2024-02-26T06:11:29;95668.47;;;13.01;53.02
21980;BME280;11154;48.558;9.234;2024-02-26T06:13:31;95669.31;;;13.02;53.37
21980;BME280;11154;48.558;9.234;2024-02-26T06:15:32;95667.44;;;13.02;53.12
21980;BME280;11154;48.558;9.234;2024-02-26T06:17:33;95668.28;;;13.03;53.10
21980;BME280;11154;48.558;9.234;2024-02-26T06:19:35;95665.16;;;13.06;52.93
21980;BME280;11154;48.558;9.234;2024-02-26T06:21:36;95664.72;;;13.09;52.69
21980;BME280;11154;48.558;9.234;2024-02-26T06:23:38;95663.09;;;13.08;52.53
21980;BME280;11154;48.558;9.234;2024-02-26T06:25:43;95680.72;;;13.09;54.17
21980;BME280;11154;48.558;9.234;2024-02-26T06:27:46;95696.94;;;13.07;53.25
21980;BME280;11154;48.558;9.234;2024-02-26T06:29:48;95688.56;;;13.04;53.22
21980;BME280;11154;48.558;9.234;2024-02-26T06:31:48;95705.03;;;13.01;52.93
21980;BME280;11154;48.558;9.234;2024-02-26T06:33:51;95702.97;;;13.03;54.71
21980;BME280;11154;48.558;9.234;2024-02-26T06:35:52;95706.22;;;13.05;54.94
21980;BME280;11154;48.558;9.234;2024-02-26T06:37:54;95712.75;;;13.09;54.56
21980;BME280;11154;48.558;9.234;2024-02-26T06:39:56;95716.44;;;13.08;54.01
21980;BME280;11154;48.558;9.234;2024-02-26T06:41:59;95724.09;;;13.04;53.98
21980;BME280;11154;48.558;9.234;2024-02-26T06:44:01;95716.72;;;13.00;54.50
21980;BME280;11154;48.558;9.234;2024-02-26T06:46:03;95723.75;;;12.95;54.48
21980;BME280;11154;48.558;9.234;2024-02-26T06:48:05;95725.63;;;12.94;54.30
21980;BME280;11154;48.558;9.234;2024-02-26T06:50:07;95722.94;;;12.94;53.27
21980;BME280;11154;48.558;9.234;2024-02-26T06:52:08;95732.59;;;12.95;53.65
21980;BME280;11154;48.558;9.234;2024-02-26T06:54:10;95738.69;;;13.02;53.55
21980;BME280;11154;48.558;9.234;2024-02-26T06:56:12;95754.63;;;13.08;52.84
21980;BME280;11154;48.558;9.234;2024-02-26T06:58:15;95758.13;;;13.09;53.05
21980;BME280;11154;48.558;9.234;2024-02-26T07:00:16;95750.09;;;13.09;54.62
21980;BME280;11154;48.558;9.234;2024-02-26T07:02:18;95741.03;;;13.10;55.40
21980;BME280;11154;48.558;9.234;2024-02-26T07:04:19;95748.47;;;13.08;56.69
21980;BME280;11154;48.558;9.234;2024-02-26T07:06:21;95746.00;;;13.06;56.50
21980;BME280;11154;48.558;9.234;2024-02-26T07:08:22;95753.19;;;13.06;57.04
21980;BME280;11154;48.558;9.234;2024-02-26T07:10:24;95749.78;;;12.99;57.97
21980;BME280;11154;48.558;9.234;2024-02-26T07:12:26;95767.03;;;12.97;58.44
21980;BME280;11154;48.558;9.234;2024-02-26T07:14:29;95757.63;;;12.94;58.98
21980;BME280;11154;48.558;9.234;2024-02-26T07:16:30;95761.78;;;12.90;59.59
21980;BME280;11154;48.558;9.234;2024-02-26T07:18:32;95765.78;;;12.99;59.88
21980;BME280;11154;48.558;9.234;2024-02-26T07:20:33;95757.63;;;12.94;60.25
21980;BME280;11154;48.558;9.234;2024-02-26T07:22:35;95755.38;;;12.91;60.20
21980;BME280;11154;48.558;9.234;2024-02-26T07:24:37;95764.44;;;12.90;60.12
21980;BME280;11154;48.558;9.234;2024-02-26T07:26:38;95771.63;;;12.90;60.25
21980;BME280;11154;48.558;9.234;2024-02-26T07:28:40;95777.78;;;12.90;61.43
21980;BME280;11154;48.558;9.234;2024-02-26T07:30:43;95776.06;;;12.96;59.59
21980;BME280;11154;48.558;9.234;2024-02-26T07:32:44;95775.84;;;12.97;59.23
21980;BME280;11154;48.558;9.234;2024-02-26T07:34:46;95775.44;;;13.00;59.85
21980;BME280;11154;48.558;9.234;2024-02-26T07:36:47;95769.88;;;13.01;58.93
21980;BME280;11154;48.558;9.234;2024-02-26T07:38:48;95770.47;;;13.03;58.39
21980;BME280;11154;48.558;9.234;2024-02-26T07:40:52;95783.59;;;13.05;58.63
21980;BME280;11154;48.558;9.234;2024-02-26T07:42:52;95780.69;;;13.06;58.96
21980;BME280;11154;48.558;9.234;2024-02-26T07:44:54;95791.16;;;13.08;58.84
21980;BME280;11154;48.558;9.234;2024-02-26T07:46:57;95789.91;;;13.10;59.46
21980;BME280;11154;48.558;9.234;2024-02-26T07:48:59;95803.03;;;13.12;59.88
21980;BME280;11154;48.558;9.234;2024-02-26T07:51:01;95808.34;;;13.12;60.57
21980;BME280;11154;48.558;9.234;2024-02-26T07:53:03;95806.53;;;13.12;60.04
21980;BME280;11154;48.558;9.234;2024-02-26T07:55:06;95794.00;;;13.13;59.85
21980;BME280;11154;48.558;9.234;2024-02-26T07:57:08;95792.72;;;13.15;59.91
21980;BME280;11154;48.558;9.234;2024-02-26T07:59:09;95795.16;;;13.17;59.03
21980;BME280;11154;48.558;9.234;2024-02-26T08:01:12;95800.09;;;13.20;58.67
21980;BME280;11154;48.558;9.234;2024-02-26T08:03:15;95799.06;;;13.21;59.26
21980;BME280;11154;48.558;9.234;2024-02-26T08:05:17;95801.50;;;13.22;59.63
21980;BME280;11154;48.558;9.234;2024-02-26T08:07:19;95797.56;;;13.25;60.28
21980;BME280;11154;48.558;9.234;2024-02-26T08:09:21;95801.88;;;13.26;59.28
21980;BME280;11154;48.558;9.234;2024-02-26T08:11:23;95798.38;;;13.25;59.54
21980;BME280;11154;48.558;9.234;2024-02-26T08:13:24;95802.91;;;13.25;58.72
21980;BME280;11154;48.558;9.234;2024-02-26T08:15:26;95795.94;;;13.24;59.03
21980;BME280;11154;48.558;9.234;2024-02-26T08:17:28;95783.41;;;13.24;59.97
21980;BME280;11154;48.558;9.234;2024-02-26T08:19:31;95777.63;;;13.27;60.62
21980;BME280;11154;48.558;9.234;2024-02-26T08:21:32;95766.16;;;13.27;60.81
21980;BME280;11154;48.558;9.234;2024-02-26T08:23:34;95771.25;;;13.28;60.11
21980;BME280;11154;48.558;9.234;2024-02-26T08:25:36;95768.59;;;13.28;58.92
21980;BME280;11154;48.558;9.234;2024-02-26T08:27:37;95771.25;;;13.28;59.17
21980;BME280;11154;48.558;9.234;2024-02-26T08:29:39;95774.72;;;13.29;59.20
21980;BME280;11154;48.558;9.234;2024-02-26T08:31:39;95779.22;;;13.35;59.30
21980;BME280;11154;48.558;9.234;2024-02-26T08:33:41;95769.72;;;13.39;57.96
21980;BME280;11154;48.558;9.234;2024-02-26T08:35:44;95767.19;;;13.44;57.76
21980;BME280;11154;48.558;9.234;2024-02-26T08:37:46;95775.34;;;13.49;57.69
21980;BME280;11154;48.558;9.234;2024-02-26T08:39:47;95770.59;;;13.51;57.57
21980;BME280;11154;48.558;9.234;2024-02-26T08:41:48;95768.53;;;13.53;57.10
21980;BME280;11154;48.558;9.234;2024-02-26T08:43:50;95750.06;;;13.51;57.16
21980;BME280;11154;48.558;9.234;2024-02-26T08:45:50;95743.91;;;13.51;56.90
21980;BME280;11154;48.558;9.234;2024-02-26T08:47:52;95747.38;;;13.51;57.17
21980;BME280;11154;48.558;9.234;2024-02-26T08:49:54;95735.91;;;13.51;57.21
21980;BME280;11154;48.558;9.234;2024-02-26T08:51:57;95734.88;;;13.52;56.64
21980;BME280;11154;48.558;9.234;2024-02-26T08:53:58;95737.53;;;13.52;55.55
21980;BME280;11154;48.558;9.234;2024-02-26T08:56:00;95739.75;;;13.55;56.39
21980;BME280;11154;48.558;9.234;2024-02-26T08:58:02;95737.44;;;13.58;56.46
21980;BME280;11154;48.558;9.234;2024-02-26T09:00:05;95739.69;;;13.61;57.20
21980;BME280;11154;48.558;9.234;2024-02-26T09:02:07;95749.09;;;13.64;58.74
21980;BME280;11154;48.558;9.234;2024-02-26T09:04:09;95752.81;;;13.63;59.63
21980;BME280;11154;48.558;9.234;2024-02-26T09:06:11;95744.66;;;13.58;58.42
21980;BME280;11154;48.558;9.234;2024-02-26T09:08:14;95743.00;;;13.57;59.15
21980;BME280;11154;48.558;9.234;2024-02-26T09:10:16;95750.22;;;13.56;59.15
21980;BME280;11154;48.558;9.234;2024-02-26T09:12:18;95746.72;;;13.56;59.92
21980;BME280;11154;48.558;9.234;2024-02-26T09:14:20;95751.03;;;13.57;60.46
21980;BME280;11154;48.558;9.234;2024-02-26T09:16:20;95751.25;;;13.55;60.59
21980;BME280;11154;48.558;9.234;2024-02-26T09:18:22;95759.94;;;13.51;60.92
21980;BME280;11154;48.558;9.234;2024-02-26T09:20:23;95765.63;;;13.54;60.49
21980;BME280;11154;48.558;9.234;2024-02-26T09:22:25;95763.19;;;13.53;60.50
21980;BME280;11154;48.558;9.234;2024-02-26T09:24:28;95760.53;;;13.53;60.76
21980;BME280;11154;48.558;9.234;2024-02-26T09:26:29;95757.88;;;13.53;61.27
21980;BME280;11154;48.558;9.234;2024-02-26T09:28:30;95755.38;;;13.51;60.95
21980;BME280;11154;48.558;9.234;2024-02-26T09:30:37;95760.97;;;13.50;61.33
21980;BME280;11154;48.558;9.234;2024-02-26T09:32:39;95752.94;;;13.50;61.73
21980;BME280;11154;48.558;9.234;2024-02-26T09:34:41;95750.06;;;13.51;61.93
21980;BME280;11154;48.558;9.234;2024-02-26T09:36:43;95751.69;;;13.52;61.38
21980;BME280;11154;48.558;9.234;2024-02-26T09:38:44;95760.97;;;13.50;60.60
21980;BME280;11154;48.558;9.234;2024-02-26T09:40:47;95771.63;;;13.50;61.28
21980;BME280;11154;48.558;9.234;2024-02-26T09:42:53;95770.22;;;13.47;60.51
21980;BME280;11154;48.558;9.234;2024-02-26T09:45:00;95788.69;;;13.49;60.80
21980;BME280;11154;48.558;9.234;2024-02-26T09:47:04;95789.28;;;13.51;60.38
21980;BME280;11154;48.558;9.234;2024-02-26T09:49:08;95788.25;;;13.52;60.09
21980;BME280;11154;48.558;9.234;2024-02-26T09:51:10;95786.19;;;13.54;60.26
21980;BME280;11154;48.558;9.234;2024-02-26T09:53:12;95789.22;;;13.57;59.63
21980;BME280;11154;48.558;9.234;2024-02-26T09:55:15;95790.19;;;13.63;59.68
21980;BME280;11154;48.558;9.234;2024-02-26T09:57:18;95784.84;;;13.63;58.02
21980;BME280;11154;48.558;9.234;2024-02-26T09:59:20;95797.97;;;13.64;57.99
21980;BME280;11154;48.558;9.234;2024-02-26T10:01:22;95786.88;;;13.67;57.21
21980;BME280;11154;48.558;9.234;2024-02-26T10:03:29;95795.91;;;13.66;56.14
21980;BME280;11154;48.558;9.234;2024-02-26T10:05:33;95799.97;;;13.68;55.50
21980;BME280;11154;48.558;9.234;2024-02-26T10:07:35;95796.66;;;13.73;55.92
21980;BME280;11154;48.558;9.234;2024-02-26T10:09:36;95803.16;;;13.77;55.63
21980;BME280;11154;48.558;9.234;2024-02-26T10:11:40;95807.09;;;13.74;55.13
21980;BME280;11154;48.558;9.234;2024-02-26T10:13:44;95806.06;;;13.75;55.53
21980;BME280;11154;48.558;9.234;2024-02-26T10:15:46;95802.38;;;13.76;55.60
21980;BME280;11154;48.558;9.234;2024-02-26T10:17:48;95800.06;;;13.80;55.35
21980;BME280;11154;48.558;9.234;2024-02-26T10:19:50;95804.56;;;13.79;56.27
21980;BME280;11154;48.558;9.234;2024-02-26T10:21:55;95807.63;;;13.83;56.49
21980;BME280;11154;48.558;9.234;2024-02-26T10:23:57;95807.56;;;13.89;56.45
21980;BME280;11154;48.558;9.234;2024-02-26T10:25:59;95809.78;;;13.92;55.15
21980;BME280;11154;48.558;9.234;2024-02-26T10:28:01;95800.28;;;13.96;55.30
21980;BME280;11154;48.558;9.234;2024-02-26T10:30:16;95795.06;;;14.01;55.59
21980;BME280;11154;48.558;9.234;2024-02-26T10:32:18;95797.53;;;14.03;55.23
21980;BME280;11154;48.558;9.234;2024-02-26T10:34:20;95785.13;;;14.08;55.32
21980;BME280;11154;48.558;9.234;2024-02-26T10:36:21;95793.69;;;14.17;55.64
21980;BME280;11154;48.558;9.234;2024-02-26T10:38:23;95798.13;;;14.23;55.74
21980;BME280;11154;48.558;9.234;2024-02-26T10:40:25;95803.84;;;14.26;54.80
21980;BME280;11154;48.558;9.234;2024-02-26T10:42:26;95811.41;;;14.29;54.45
21980;BME280;11154;48.558;9.234;2024-02-26T10:44:27;95822.84;;;14.36;54.71
21980;BME280;11154;48.558;9.234;2024-02-26T10:46:30;95812.50;;;14.40;54.10